createdAt,value
2023-04-18T10:39:30.729Z,46.83
2023-04-18T10:41:59.953Z,46.55
2023-04-18T10:44:28.068Z,46.34
2023-04-18T10:47:26.422Z,46.08
2023-04-18T10:50:22.005Z,45.79
2023-04-18T10:53:03.471Z,45.77
2023-04-18T10:55:32.983Z,45.77
2023-04-18T10:58:01.044Z,45.81
2023-04-18T11:00:29.178Z,45.85
2023-04-18T11:03:00.540Z,45.85
2023-04-18T11:05:29.447Z,45.84
2023-04-18T11:08:07.870Z,45.76
2023-04-18T11:10:40.900Z,45.75
2023-04-18T11:13:09.134Z,45.73
2023-04-18T11:15:40.232Z,45.79
2023-04-18T11:18:10.339Z,45.77
2023-04-18T11:20:39.071Z,45.83
2023-04-18T11:23:12.351Z,45.74
2023-04-18T11:25:45.023Z,45.79
2023-04-18T11:28:22.176Z,45.75
2023-04-18T11:30:55.477Z,45.86
2023-04-18T11:33:24.987Z,45.87
2023-04-18T11:35:53.976Z,45.92
2023-04-18T11:38:24.253Z,45.92
2023-04-18T11:40:54.032Z,45.93
2023-04-18T11:43:24.077Z,45.99
2023-04-18T11:45:53.525Z,45.91
2023-04-18T11:48:24.682Z,45.97
2023-04-18T11:50:52.989Z,45.96
2023-04-18T11:53:53.153Z,45.87
2023-04-18T11:56:36.097Z,46.02
2023-04-18T11:59:21.196Z,45.97
2023-04-18T12:01:50.305Z,45.91
2023-04-18T12:04:19.098Z,46.07
2023-04-18T12:06:54.709Z,45.88
2023-04-18T12:09:24.564Z,45.99
2023-04-18T12:12:01.215Z,46.01
2023-04-18T12:14:52.815Z,45.98
2023-04-18T12:17:21.249Z,46.11
2023-04-18T12:19:50.379Z,46.11
2023-04-18T12:22:24.127Z,46.05
2023-04-18T12:25:07.166Z,46.23
2023-04-18T12:27:53.838Z,46.04
2023-04-18T12:30:23.548Z,46.24
2023-04-18T12:32:52.161Z,46.18
2023-04-18T12:35:22.504Z,46.22
2023-04-18T12:37:57.079Z,46.08
2023-04-18T12:40:31.419Z,46.07
2023-04-18T12:43:04.289Z,46.19
2023-04-18T12:45:34.390Z,46.06
2023-04-18T12:48:05.063Z,46.25
2023-04-18T12:50:33.103Z,46.28
2023-04-18T12:53:03.748Z,46.21
2023-04-18T12:55:31.935Z,46.15
2023-04-18T12:58:01.516Z,46.31
2023-04-18T13:00:30.457Z,46.39
2023-04-18T13:03:01.228Z,46.43
2023-04-18T13:05:44.768Z,46.29
2023-04-18T13:08:38.551Z,46.21
2023-04-18T13:11:14.974Z,46.27
2023-04-18T13:13:45.605Z,46.26
2023-04-18T13:16:22.595Z,46.42
2023-04-18T13:18:57.872Z,46.38
2023-04-18T13:21:26.867Z,46.36
2023-04-18T13:23:55.050Z,46.40
2023-04-18T13:26:29.108Z,46.36
2023-04-18T13:28:59.901Z,46.32
2023-04-18T13:31:27.981Z,46.49
2023-04-18T13:34:00.539Z,46.55
2023-04-18T13:36:28.609Z,46.68
2023-04-18T13:39:00.112Z,46.53
2023-04-18T13:41:31.544Z,46.54
2023-04-18T13:44:01.106Z,46.49
2023-04-18T13:46:30.755Z,46.53
2023-04-18T13:48:59.100Z,46.54
2023-04-18T13:51:27.805Z,46.74
2023-04-18T13:53:55.921Z,46.58
2023-04-18T13:56:26.799Z,46.79
2023-04-18T13:58:54.766Z,46.75
2023-04-18T14:01:24.555Z,46.76
2023-04-18T14:03:54.867Z,46.82
2023-04-18T14:06:31.921Z,46.88
2023-04-18T14:09:00.373Z,46.76
2023-04-18T14:11:28.679Z,46.81
2023-04-18T14:13:56.789Z,46.75
2023-04-18T14:16:26.329Z,46.85
2023-04-18T14:18:54.997Z,46.82
2023-04-18T14:21:23.136Z,46.86
2023-04-18T14:23:53.052Z,46.85
2023-04-18T14:26:21.208Z,46.93
2023-04-18T14:28:49.415Z,46.77
2023-04-18T14:31:18.461Z,46.83
2023-04-18T14:33:53.484Z,46.81
2023-04-18T14:36:23.312Z,47.00
2023-04-18T14:38:58.028Z,46.92
2023-04-18T14:41:29.376Z,46.87
2023-04-18T14:43:57.867Z,47.05
2023-04-18T14:46:31.947Z,46.95
2023-04-18T14:49:02.911Z,46.82
2023-04-18T14:51:31.393Z,47.08
2023-04-18T14:53:59.942Z,47.03
2023-04-18T14:56:35.628Z,47.03
2023-04-18T14:59:04.145Z,47.04
2023-04-18T15:01:34.685Z,47.02
2023-04-18T15:04:06.487Z,47.08
2023-04-18T15:06:44.379Z,47.23
2023-04-18T15:09:14.721Z,47.12
2023-04-18T15:11:43.023Z,47.07
2023-04-18T15:17:33.849Z,46.99
2023-04-18T15:21:26.915Z,47.03
2023-04-18T15:24:27.101Z,47.21
2023-04-18T15:27:03.574Z,47.10
2023-04-18T15:29:56.511Z,47.18
2023-04-18T15:32:57.637Z,47.14
2023-04-18T15:35:47.901Z,47.06
2023-04-18T15:38:17.921Z,47.07
2023-04-18T15:41:01.599Z,47.07
2023-04-18T15:43:31.936Z,47.09
2023-04-18T15:46:33.202Z,47.14
2023-04-18T15:49:15.474Z,47.09
2023-04-18T15:52:09.947Z,47.08
2023-04-18T15:54:50.339Z,47.13
2023-04-18T15:57:29.646Z,47.09
2023-04-18T15:59:59.785Z,47.00
2023-04-18T16:02:28.198Z,47.06
2023-04-18T16:04:58.031Z,47.09
2023-04-18T16:07:28.136Z,46.98
2023-04-18T16:09:56.715Z,46.94
2023-04-18T16:12:26.871Z,47.06
2023-04-18T16:15:24.612Z,47.01
2023-04-18T16:17:57.554Z,47.05
2023-04-18T16:20:27.430Z,47.04
2023-04-18T16:23:03.729Z,47.00
2023-04-18T16:25:32.204Z,47.07
2023-04-18T16:28:00.567Z,47.03
2023-04-18T16:30:28.913Z,47.06
2023-04-18T16:32:57.551Z,47.03
2023-04-18T16:35:28.115Z,47.11
2023-04-18T16:38:03.983Z,47.08
2023-04-18T16:40:32.213Z,46.95
2023-04-18T16:43:42.390Z,46.87
2023-04-18T17:01:45.897Z,46.68
2023-04-18T17:04:14.267Z,46.65
2023-04-18T17:06:45.498Z,46.60
2023-04-18T17:09:14.829Z,46.43
2023-04-18T17:11:43.272Z,46.49
2023-04-18T17:14:16.878Z,46.38
2023-04-18T17:16:46.616Z,46.34
2023-04-18T17:19:14.861Z,46.20
2023-04-18T17:21:44.133Z,46.30
2023-04-18T17:24:31.599Z,46.23
2023-04-18T17:27:18.515Z,46.18
2023-04-18T17:30:40.299Z,46.06
2023-04-18T17:33:44.750Z,45.99
2023-04-18T17:36:21.545Z,46.06
2023-04-18T17:38:52.571Z,46.09
2023-04-18T17:41:23.477Z,45.97
2023-04-18T17:44:02.539Z,46.01
2023-04-18T17:46:39.800Z,45.79
2023-04-18T17:49:08.811Z,45.72
2023-04-18T17:52:31.282Z,45.64
2023-04-18T17:54:53.438Z,45.61
2023-04-18T18:00:44.925Z,45.53
2023-04-18T18:07:53.735Z,45.33
2023-04-18T18:33:08.708Z,45.07
2023-04-18T18:35:46.996Z,45.21
2023-04-18T18:38:26.714Z,45.12
2023-04-18T18:40:56.609Z,45.28
2023-04-18T18:43:30.348Z,45.31
2023-04-18T18:46:10.004Z,45.22
2023-04-18T18:48:48.586Z,45.19
2023-04-18T18:51:17.382Z,45.20
2023-04-18T18:53:45.766Z,45.13
2023-04-18T18:56:16.004Z,45.17
2023-04-18T18:58:47.066Z,45.01
2023-04-18T19:01:26.651Z,45.14
2023-04-18T19:04:30.312Z,45.08
2023-04-18T19:07:30.335Z,45.18
2023-04-18T19:10:36.401Z,44.96
2023-04-18T19:13:55.212Z,45.06
2023-04-18T19:19:55.303Z,44.88
2023-04-18T19:22:42.448Z,44.77
2023-04-18T19:28:19.545Z,44.90
2023-04-18T19:31:38.249Z,44.55
2023-04-18T19:37:40.657Z,44.61
2023-04-18T19:40:15.388Z,44.55
2023-04-18T19:42:50.473Z,44.73
2023-04-18T19:45:31.892Z,44.48
2023-04-18T19:48:22.328Z,44.46
2023-04-18T19:51:23.123Z,44.37
2023-04-18T19:54:12.238Z,44.35
2023-04-18T19:56:59.983Z,44.25
2023-04-18T19:59:36.080Z,44.39
2023-04-18T20:02:13.160Z,44.34
2023-04-18T20:08:25.998Z,44.38
2023-04-18T20:11:04.841Z,44.31
2023-04-18T20:13:51.757Z,44.30
2023-04-18T20:22:39.786Z,44.39
2023-04-18T20:25:15.011Z,44.37
2023-04-18T20:27:46.600Z,44.35
2023-04-18T20:30:25.649Z,44.50
2023-04-18T20:32:58.500Z,44.24
2023-04-18T20:35:31.804Z,44.47
2023-04-18T20:38:30.009Z,44.23
2023-04-18T20:41:02.545Z,44.16
2023-04-18T20:43:52.979Z,44.14
2023-04-18T20:46:31.814Z,44.19
2023-04-18T20:49:37.486Z,44.08
2023-04-18T20:52:10.719Z,44.18
2023-04-18T20:54:49.368Z,44.16
2023-04-18T20:57:17.673Z,44.18
2023-04-18T20:59:46.104Z,44.10
2023-04-18T21:02:29.429Z,44.07
2023-04-18T21:05:04.124Z,44.28
2023-04-18T21:07:45.746Z,44.05
2023-04-18T21:10:20.850Z,44.19
2023-04-18T21:12:56.763Z,44.08
2023-04-18T21:15:42.492Z,44.18
2023-04-18T21:18:16.281Z,44.23
2023-04-18T21:20:48.277Z,44.16
2023-04-18T21:23:24.489Z,44.38
